Antero De Quental — CSKP — position and weather

sailwx.info

Track history (hours):
 
Tides and Currents Weather Stations Pressure Air Temp Water Temp Dewpoint Dewpoint Depression Visibility Wind Speed Wind Dir Waves Ship Positions

Antero De Quental

Last reported at 2017-Dec-18 11:01 UTC. Time now 2017-Dec-18 11:11 UTC.
Position N 38°39' W 009°06'.

Length 49 m; draft 1.9 m.

Type: Passenger vessel. MMSI: 263701460.

Date/timePositionNaut miles runAvg speedWind from/ knotsBaromVisibWave heightAir tempDewpointWater temp
2017-Dec-18 11:01N 38°39' W 009°06'1 1.5
2017-Dec-18 10:31N 38°39' W 009°05'0 0.3
2017-Dec-18 10:01N 38°39' W 009°05'4 8.3
2017-Dec-18 09:30N 38°42' W 009°08'4 8.4
2017-Dec-18 09:00N 38°39' W 009°05'4 7.9
2017-Dec-18 08:30N 38°42' W 009°08'2 4.4
2017-Dec-18 08:00N 38°40' W 009°07'1 2.4
2017-Dec-18 07:31N 38°39' W 009°06'1 1.6
2017-Dec-18 07:00N 38°39' W 009°05'0 0.0
2017-Dec-18 06:30N 38°39' W 009°05'  
2017-Dec-15 20:02N 38°39' W 009°05'0 0.1
2017-Dec-15 20:00N 38°39' W 009°05'4 8.1
2017-Dec-15 19:30N 38°42' W 009°08'4 8.4
2017-Dec-15 19:00N 38°39' W 009°05'4 7.5
2017-Dec-15 18:30N 38°42' W 009°08'2 3.8
2017-Dec-15 18:00N 38°40' W 009°07'1 2.4
2017-Dec-15 17:30N 38°40' W 009°06'3 6.6
2017-Dec-15 17:00N 38°42' W 009°08'4 8.3
2017-Dec-15 16:30N 38°39' W 009°05'3 7.0
2017-Dec-15 16:00N 38°42' W 009°08'3 6.2
2017-Dec-15 15:30N 38°39' W 009°05'0 1.0
2017-Dec-15 15:01N 38°39' W 009°05'0 0.0
2017-Dec-15 11:19N 38°39' W 009°05'311.0
2017-Dec-15 11:00N 38°41' W 009°08'2 5.0
2017-Dec-15 10:30N 38°39' W 009°06'1 1.9
2017-Dec-15 10:01N 38°39' W 009°05'4 8.0
2017-Dec-15 09:31N 38°42' W 009°08'3 5.1
2017-Dec-15 09:00N 38°40' W 009°07'0 0.3
2017-Dec-15 08:31N 38°40' W 009°07'3 5.6
2017-Dec-15 08:01N 38°42' W 009°08'4 8.4
2017-Dec-15 07:30N 38°39' W 009°05'4 8.3
2017-Dec-15 07:00N 38°42' W 009°08'4 8.4
2017-Dec-15 06:30N 38°39' W 009°05'3 6.0
2017-Dec-15 06:01N 38°41' W 009°08'3 6.1
2017-Dec-15 05:30N 38°39' W 009°05'0 0.0
2017-Dec-15 05:00N 38°39' W 009°05'0 0.0
2017-Dec-15 04:30N 38°39' W 009°05'0 0.0
2017-Dec-15 04:00N 38°39' W 009°05'0 0.0
2017-Dec-15 02:30N 38°39' W 009°05'0 0.0
2017-Dec-15 01:00N 38°39' W 009°05'0 0.0
2017-Dec-15 00:30N 38°39' W 009°05'0 0.0
2017-Dec-14 18:31N 38°39' W 009°05'4 7.5
2017-Dec-14 18:00N 38°42' W 009°08'2 3.8
2017-Dec-14 17:30N 38°40' W 009°07'0 0.6
2017-Dec-14 17:00N 38°40' W 009°07'2 4.6
2017-Dec-14 16:30N 38°39' W 009°05'0 0.0
2017-Dec-14 10:03N 38°39' W 009°05'0 0.0
2017-Dec-14 10:00N 38°39' W 009°05'2 3.7
2017-Dec-14 09:31N 38°40' W 009°07'1 1.3
2017-Dec-14 09:01N 38°40' W 009°06'3 6.0
2017-Dec-14 08:30N 38°42' W 009°08'4 8.3
2017-Dec-14 08:00N 38°39' W 009°05'4 7.6
2017-Dec-14 07:30N 38°42' W 009°08'4 7.6
2017-Dec-14 07:00N 38°39' W 009°05'0 0.3
2017-Dec-14 06:30N 38°39' W 009°05'0 0.0
2017-Dec-13 21:29N 38°39' W 009°05'4 8.8
2017-Dec-13 21:01N 38°42' W 009°08'4 8.3
2017-Dec-13 20:31N 38°39' W 009°05'2 4.1
2017-Dec-13 20:00N 38°40' W 009°07'1 1.6
2017-Dec-13 19:30N 38°41' W 009°08'1 1.5
2017-Dec-13 19:00N 38°40' W 009°07'1 1.8
2017-Dec-13 18:31N 38°40' W 009°06'3 6.1
2017-Dec-13 18:00N 38°42' W 009°08'4 8.3
2017-Dec-13 17:30N 38°39' W 009°05'4 8.3
2017-Dec-13 17:00N 38°42' W 009°08'3 6.4
2017-Dec-13 16:31N 38°40' W 009°06'2 4.8
2017-Dec-13 16:00N 38°41' W 009°08'3 6.6
2017-Dec-13 15:30N 38°39' W 009°05'0 0.0
2017-Dec-13 10:29N 38°39' W 009°05'3 6.7
2017-Dec-13 10:01N 38°41' W 009°08'3 5.5
2017-Dec-13 09:31N 38°39' W 009°06'1 2.2
2017-Dec-13 09:01N 38°40' W 009°07'1 1.5
2017-Dec-13 08:30N 38°40' W 009°06'3 6.4
2017-Dec-13 08:00N 38°42' W 009°08'4 8.4
2017-Dec-13 07:30N 38°39' W 009°05'4 8.4
2017-Dec-13 07:00N 38°42' W 009°08'4 8.3
2017-Dec-13 06:30N 38°39' W 009°05'4 7.2
2017-Dec-13 06:01N 38°42' W 009°08'4 0.6
2017-Dec-13 00:20N 38°39' W 009°05'0 0.0
2017-Dec-13 00:00N 38°39' W 009°05'4 8.4
2017-Dec-12 23:30N 38°42' W 009°08'4 8.4
2017-Dec-12 23:00N 38°39' W 009°05'3 6.9
2017-Dec-12 22:31N 38°42' W 009°08'3 6.8
2017-Dec-12 22:00N 38°39' W 009°05'4 7.8
2017-Dec-12 21:30N 38°42' W 009°08'4 7.7
2017-Dec-12 21:00N 38°39' W 009°05'0 0.0
2017-Dec-12 20:30N 38°39' W 009°05'4 8.3
2017-Dec-12 20:00N 38°42' W 009°08'4 8.4
2017-Dec-12 19:30N 38°39' W 009°05'4 8.4
2017-Dec-12 19:00N 38°42' W 009°08'4 8.3
2017-Dec-12 18:30N 38°39' W 009°05'4 7.2
2017-Dec-12 18:01N 38°42' W 009°07'2 4.1
2017-Dec-12 17:31N 38°40' W 009°07'0 1.0
2017-Dec-12 17:01N 38°40' W 009°07'2 0.4
2017-Dec-12 11:13N 38°39' W 009°05'0 0.0
2017-Dec-12 11:00N 38°39' W 009°05'0 0.0
2017-Dec-12 10:30N 38°39' W 009°05'0 0.0
2017-Dec-11 15:42N 38°39' W 009°05'0 0.0
2017-Dec-11 15:30N 38°39' W 009°05'4 7.7
2017-Dec-11 15:00N 38°42' W 009°08'3 6.6
2017-Dec-11 14:31N 38°39' W 009°06'3 6.4
2017-Dec-11 14:01N 38°42' W 009°08'3 6.3
2017-Dec-11 13:31N 38°39' W 009°06'1 1.2
2017-Dec-11 13:01N 38°39' W 009°05'0 0.0
2017-Dec-11 12:31N 38°39' W 009°05'0 0.0
2017-Dec-11 12:00N 38°39' W 009°05'0 0.0
2017-Dec-11 11:30N 38°39' W 009°05'0 0.2
2017-Dec-11 11:00N 38°39' W 009°05'4 7.1
2017-Dec-11 10:31N 38°42' W 009°08'3 6.2
2017-Dec-11 10:00N 38°39' W 009°05'1 1.2
2017-Dec-11 09:30N 38°39' W 009°05'3 6.8
2017-Dec-11 09:00N 38°42' W 009°08'1 2.9
2017-Dec-11 08:31N 38°40' W 009°08'2 3.2
2017-Dec-11 08:00N 38°39' W 009°06'4 7.0
2017-Dec-11 07:30N 38°42' W 009°08'4 8.3
2017-Dec-11 07:00N 38°39' W 009°05'4 7.7
2017-Dec-11 06:30N 38°42' W 009°08'3 7.0
2017-Dec-11 06:01N 38°39' W 009°05'4 7.1
2017-Dec-11 05:30N 38°42' W 009°08'4 7.9
2017-Dec-11 05:00N 38°39' W 009°05'0 0.0
2017-Dec-11 04:30N 38°39' W 009°05'0 0.0
2017-Dec-11 04:01N 38°39' W 009°05'0 0.0
2017-Dec-11 03:30N 38°39' W 009°05'0 0.0
2017-Dec-11 03:00N 38°39' W 009°05'0 0.0
2017-Dec-11 02:30N 38°39' W 009°05'4 8.3
2017-Dec-11 02:00N 38°42' W 009°08'4 8.3
2017-Dec-11 01:31N 38°39' W 009°05'4 8.3
2017-Dec-11 01:00N 38°42' W 009°08'4 8.2
2017-Dec-11 00:30N 38°39' W 009°05'4 8.4
2017-Dec-11 00:00N 38°42' W 009°08'4 8.3
2017-Dec-10 23:30N 38°39' W 009°05'3 6.8
2017-Dec-10 23:00N 38°42' W 009°08'2 4.9
2017-Dec-10 22:30N 38°40' W 009°06'3 5.0
2017-Dec-10 22:01N 38°42' W 009°08'3 5.2
2017-Dec-10 21:30N 38°39' W 009°06'3 5.1
2017-Dec-10 21:01N 38°41' W 009°08'3 5.0
2017-Dec-10 20:30N 38°39' W 009°06'1 1.9
2017-Dec-10 20:00N 38°39' W 009°05'3 6.6
2017-Dec-10 19:30N 38°41' W 009°08'2 4.3
2017-Dec-10 19:00N 38°40' W 009°06'3 5.1
2017-Dec-10 18:30N 38°42' W 009°08'3 5.8
2017-Dec-10 18:00N 38°39' W 009°06'3 6.0
2017-Dec-10 17:31N 38°42' W 009°08'3 5.9
2017-Dec-10 17:00N 38°39' W 009°06'3 5.1
2017-Dec-10 16:30N 38°42' W 009°08'3 5.1
2017-Dec-10 16:00N 38°39' W 009°06'3 5.4
2017-Dec-10 15:30N 38°42' W 009°08'3 5.7
2017-Dec-10 15:00N 38°39' W 009°06'1 1.6
2017-Dec-10 14:30N 38°39' W 009°05'0 0.0
2017-Dec-10 14:00N 38°39' W 009°05'0 0.0
2017-Dec-10 13:30N 38°39' W 009°05'3 6.8
2017-Dec-10 13:00N 38°42' W 009°08'3 5.5
2017-Dec-10 12:31N 38°39' W 009°06'3 5.3
2017-Dec-10 12:01N 38°42' W 009°08'3 5.6
2017-Dec-10 11:30N 38°39' W 009°06'1 1.2
2017-Dec-10 11:00N 38°39' W 009°05'0 0.0
2017-Dec-10 10:30N 38°39' W 009°05'0 0.0
2017-Dec-10 10:00N 38°39' W 009°05'0 0.0
2017-Dec-10 09:30N 38°39' W 009°05'  
Track history (hours):
 
Tides and Currents Weather Stations Pressure Air Temp Water Temp Dewpoint Dewpoint Depression Visibility Wind Speed Wind Dir Waves Ship Positions

Antero De Quental

Last reported at 2017-Dec-18 11:01 UTC. Time now 2017-Dec-18 11:11 UTC.
Position N 38°39' W 009°06'.

Length 49 m; draft 1.9 m.

Type: Passenger vessel. MMSI: 263701460.

Date/timePositionNaut miles runAvg speedWind from/ knotsBaromVisibWave heightAir tempDewpointWater temp
2017-Dec-18 11:01N 38°39' W 009°06'1 1.5
2017-Dec-18 10:31N 38°39' W 009°05'0 0.3
2017-Dec-18 10:01N 38°39' W 009°05'4 8.3
2017-Dec-18 09:30N 38°42' W 009°08'4 8.4
2017-Dec-18 09:00N 38°39' W 009°05'4 7.9
2017-Dec-18 08:30N 38°42' W 009°08'2 4.4
2017-Dec-18 08:00N 38°40' W 009°07'1 2.4
2017-Dec-18 07:31N 38°39' W 009°06'1 1.6
2017-Dec-18 07:00N 38°39' W 009°05'0 0.0
2017-Dec-18 06:30N 38°39' W 009°05'  
2017-Dec-15 20:02N 38°39' W 009°05'0 0.1
2017-Dec-15 20:00N 38°39' W 009°05'4 8.1
2017-Dec-15 19:30N 38°42' W 009°08'4 8.4
2017-Dec-15 19:00N 38°39' W 009°05'4 7.5
2017-Dec-15 18:30N 38°42' W 009°08'2 3.8
2017-Dec-15 18:00N 38°40' W 009°07'1 2.4
2017-Dec-15 17:30N 38°40' W 009°06'3 6.6
2017-Dec-15 17:00N 38°42' W 009°08'4 8.3
2017-Dec-15 16:30N 38°39' W 009°05'3 7.0
2017-Dec-15 16:00N 38°42' W 009°08'3 6.2
2017-Dec-15 15:30N 38°39' W 009°05'0 1.0
2017-Dec-15 15:01N 38°39' W 009°05'0 0.0
2017-Dec-15 11:19N 38°39' W 009°05'311.0
2017-Dec-15 11:00N 38°41' W 009°08'2 5.0
2017-Dec-15 10:30N 38°39' W 009°06'1 1.9
2017-Dec-15 10:01N 38°39' W 009°05'4 8.0
2017-Dec-15 09:31N 38°42' W 009°08'3 5.1
2017-Dec-15 09:00N 38°40' W 009°07'0 0.3
2017-Dec-15 08:31N 38°40' W 009°07'3 5.6
2017-Dec-15 08:01N 38°42' W 009°08'4 8.4
2017-Dec-15 07:30N 38°39' W 009°05'4 8.3
2017-Dec-15 07:00N 38°42' W 009°08'4 8.4
2017-Dec-15 06:30N 38°39' W 009°05'3 6.0
2017-Dec-15 06:01N 38°41' W 009°08'3 6.1
2017-Dec-15 05:30N 38°39' W 009°05'0 0.0
2017-Dec-15 05:00N 38°39' W 009°05'0 0.0
2017-Dec-15 04:30N 38°39' W 009°05'0 0.0
2017-Dec-15 04:00N 38°39' W 009°05'0 0.0
2017-Dec-15 02:30N 38°39' W 009°05'0 0.0
2017-Dec-15 01:00N 38°39' W 009°05'0 0.0
2017-Dec-15 00:30N 38°39' W 009°05'0 0.0
2017-Dec-14 18:31N 38°39' W 009°05'4 7.5
2017-Dec-14 18:00N 38°42' W 009°08'2 3.8
2017-Dec-14 17:30N 38°40' W 009°07'0 0.6
2017-Dec-14 17:00N 38°40' W 009°07'2 4.6
2017-Dec-14 16:30N 38°39' W 009°05'0 0.0
2017-Dec-14 10:03N 38°39' W 009°05'0 0.0
2017-Dec-14 10:00N 38°39' W 009°05'2 3.7
2017-Dec-14 09:31N 38°40' W 009°07'1 1.3
2017-Dec-14 09:01N 38°40' W 009°06'3 6.0
2017-Dec-14 08:30N 38°42' W 009°08'4 8.3
2017-Dec-14 08:00N 38°39' W 009°05'4 7.6
2017-Dec-14 07:30N 38°42' W 009°08'4 7.6
2017-Dec-14 07:00N 38°39' W 009°05'0 0.3
2017-Dec-14 06:30N 38°39' W 009°05'0 0.0
2017-Dec-13 21:29N 38°39' W 009°05'4 8.8
2017-Dec-13 21:01N 38°42' W 009°08'4 8.3
2017-Dec-13 20:31N 38°39' W 009°05'2 4.1
2017-Dec-13 20:00N 38°40' W 009°07'1 1.6
2017-Dec-13 19:30N 38°41' W 009°08'1 1.5
2017-Dec-13 19:00N 38°40' W 009°07'1 1.8
2017-Dec-13 18:31N 38°40' W 009°06'3 6.1
2017-Dec-13 18:00N 38°42' W 009°08'4 8.3
2017-Dec-13 17:30N 38°39' W 009°05'4 8.3
2017-Dec-13 17:00N 38°42' W 009°08'3 6.4
2017-Dec-13 16:31N 38°40' W 009°06'2 4.8
2017-Dec-13 16:00N 38°41' W 009°08'3 6.6
2017-Dec-13 15:30N 38°39' W 009°05'0 0.0
2017-Dec-13 10:29N 38°39' W 009°05'3 6.7
2017-Dec-13 10:01N 38°41' W 009°08'3 5.5
2017-Dec-13 09:31N 38°39' W 009°06'1 2.2
2017-Dec-13 09:01N 38°40' W 009°07'1 1.5
2017-Dec-13 08:30N 38°40' W 009°06'3 6.4
2017-Dec-13 08:00N 38°42' W 009°08'4 8.4
2017-Dec-13 07:30N 38°39' W 009°05'4 8.4
2017-Dec-13 07:00N 38°42' W 009°08'4 8.3
2017-Dec-13 06:30N 38°39' W 009°05'4 7.2
2017-Dec-13 06:01N 38°42' W 009°08'4 0.6
2017-Dec-13 00:20N 38°39' W 009°05'0 0.0
2017-Dec-13 00:00N 38°39' W 009°05'4 8.4
2017-Dec-12 23:30N 38°42' W 009°08'4 8.4
2017-Dec-12 23:00N 38°39' W 009°05'3 6.9
2017-Dec-12 22:31N 38°42' W 009°08'3 6.8
2017-Dec-12 22:00N 38°39' W 009°05'4 7.8
2017-Dec-12 21:30N 38°42' W 009°08'4 7.7
2017-Dec-12 21:00N 38°39' W 009°05'0 0.0
2017-Dec-12 20:30N 38°39' W 009°05'4 8.3
2017-Dec-12 20:00N 38°42' W 009°08'4 8.4
2017-Dec-12 19:30N 38°39' W 009°05'4 8.4
2017-Dec-12 19:00N 38°42' W 009°08'4 8.3
2017-Dec-12 18:30N 38°39' W 009°05'4 7.2
2017-Dec-12 18:01N 38°42' W 009°07'2 4.1
2017-Dec-12 17:31N 38°40' W 009°07'0 1.0
2017-Dec-12 17:01N 38°40' W 009°07'2 0.4
2017-Dec-12 11:13N 38°39' W 009°05'0 0.0
2017-Dec-12 11:00N 38°39' W 009°05'0 0.0
2017-Dec-12 10:30N 38°39' W 009°05'0 0.0
2017-Dec-11 15:42N 38°39' W 009°05'0 0.0
2017-Dec-11 15:30N 38°39' W 009°05'4 7.7
2017-Dec-11 15:00N 38°42' W 009°08'3 6.6
2017-Dec-11 14:31N 38°39' W 009°06'3 6.4
2017-Dec-11 14:01N 38°42' W 009°08'3 6.3
2017-Dec-11 13:31N 38°39' W 009°06'1 1.2
2017-Dec-11 13:01N 38°39' W 009°05'0 0.0
2017-Dec-11 12:31N 38°39' W 009°05'0 0.0
2017-Dec-11 12:00N 38°39' W 009°05'0 0.0
2017-Dec-11 11:30N 38°39' W 009°05'0 0.2
2017-Dec-11 11:00N 38°39' W 009°05'4 7.1
2017-Dec-11 10:31N 38°42' W 009°08'3 6.2
2017-Dec-11 10:00N 38°39' W 009°05'1 1.2
2017-Dec-11 09:30N 38°39' W 009°05'3 6.8
2017-Dec-11 09:00N 38°42' W 009°08'1 2.9
2017-Dec-11 08:31N 38°40' W 009°08'2 3.2
2017-Dec-11 08:00N 38°39' W 009°06'4 7.0
2017-Dec-11 07:30N 38°42' W 009°08'4 8.3
2017-Dec-11 07:00N 38°39' W 009°05'4 7.7
2017-Dec-11 06:30N 38°42' W 009°08'3 7.0
2017-Dec-11 06:01N 38°39' W 009°05'4 7.1
2017-Dec-11 05:30N 38°42' W 009°08'4 7.9
2017-Dec-11 05:00N 38°39' W 009°05'0 0.0
2017-Dec-11 04:30N 38°39' W 009°05'0 0.0
2017-Dec-11 04:01N 38°39' W 009°05'0 0.0
2017-Dec-11 03:30N 38°39' W 009°05'0 0.0
2017-Dec-11 03:00N 38°39' W 009°05'0 0.0
2017-Dec-11 02:30N 38°39' W 009°05'4 8.3
2017-Dec-11 02:00N 38°42' W 009°08'4 8.3
2017-Dec-11 01:31N 38°39' W 009°05'4 8.3
2017-Dec-11 01:00N 38°42' W 009°08'4 8.2
2017-Dec-11 00:30N 38°39' W 009°05'4 8.4
2017-Dec-11 00:00N 38°42' W 009°08'4 8.3
2017-Dec-10 23:30N 38°39' W 009°05'3 6.8
2017-Dec-10 23:00N 38°42' W 009°08'2 4.9
2017-Dec-10 22:30N 38°40' W 009°06'3 5.0
2017-Dec-10 22:01N 38°42' W 009°08'3 5.2
2017-Dec-10 21:30N 38°39' W 009°06'3 5.1
2017-Dec-10 21:01N 38°41' W 009°08'3 5.0
2017-Dec-10 20:30N 38°39' W 009°06'1 1.9
2017-Dec-10 20:00N 38°39' W 009°05'3 6.6
2017-Dec-10 19:30N 38°41' W 009°08'2 4.3
2017-Dec-10 19:00N 38°40' W 009°06'3 5.1
2017-Dec-10 18:30N 38°42' W 009°08'3 5.8
2017-Dec-10 18:00N 38°39' W 009°06'3 6.0
2017-Dec-10 17:31N 38°42' W 009°08'3 5.9
2017-Dec-10 17:00N 38°39' W 009°06'3 5.1
2017-Dec-10 16:30N 38°42' W 009°08'3 5.1
2017-Dec-10 16:00N 38°39' W 009°06'3 5.4
2017-Dec-10 15:30N 38°42' W 009°08'3 5.7
2017-Dec-10 15:00N 38°39' W 009°06'1 1.6
2017-Dec-10 14:30N 38°39' W 009°05'0 0.0
2017-Dec-10 14:00N 38°39' W 009°05'0 0.0
2017-Dec-10 13:30N 38°39' W 009°05'3 6.8
2017-Dec-10 13:00N 38°42' W 009°08'3 5.5
2017-Dec-10 12:31N 38°39' W 009°06'3 5.3
2017-Dec-10 12:01N 38°42' W 009°08'3 5.6
2017-Dec-10 11:30N 38°39' W 009°06'1 1.2
2017-Dec-10 11:00N 38°39' W 009°05'0 0.0
2017-Dec-10 10:30N 38°39' W 009°05'0 0.0
2017-Dec-10 10:00N 38°39' W 009°05'0 0.0
2017-Dec-10 09:30N 38°39' W 009°05'  

Dump ship's entire track history